Time;durP1;ratioP1;P1;durP2;ratioP2;P2;SDS_P1;SDS_P2;PMS_P1;PMS_P2;Temp;Humidity;BMP_temperature;BMP_pressure;BME280_temperature;BME280_humidity;BME280_pressure;Samples;Min_cycle;Max_cycle;Signal;HPM_P1;HPM_P2
2022/08/03 00:01:40;;;;;;;8.90;3.97;;;19.00;99.90;;;;;;5017225;28;20180;-64
2022/08/03 00:04:06;;;;;;;5.20;3.97;;;19.00;99.90;;;;;;5017280;28;20235;-64
2022/08/03 00:06:32;;;;;;;6.97;3.63;;;19.00;99.90;;;;;;5017342;28;20203;-64
2022/08/03 00:08:58;;;;;;;5.38;3.95;;;18.90;99.90;;;;;;5017725;28;20156;-64
2022/08/03 00:11:25;;;;;;;7.40;4.32;;;18.90;99.90;;;;;;5016757;28;20632;-64
2022/08/03 00:13:51;;;;;;;5.97;4.03;;;18.90;99.90;;;;;;5017377;28;20176;-64
2022/08/03 00:16:17;;;;;;;9.38;5.07;;;18.90;99.90;;;;;;5017517;28;20203;-64
2022/08/03 00:18:43;;;;;;;6.93;5.20;;;18.90;99.90;;;;;;4999661;28;20531;-65
2022/08/03 00:21:09;;;;;;;6.32;4.75;;;18.90;99.90;;;;;;5017296;28;20179;-65
2022/08/03 00:23:35;;;;;;;8.75;5.30;;;18.80;99.90;;;;;;5017383;28;20614;-64
2022/08/03 00:26:01;;;;;;;6.60;4.60;;;18.80;99.90;;;;;;5016583;28;20192;-64
2022/08/03 00:28:27;;;;;;;6.45;4.47;;;18.70;99.90;;;;;;5016972;28;20239;-64
2022/08/03 00:30:54;;;;;;;8.55;4.60;;;18.70;99.90;;;;;;4999115;28;20548;-64
2022/08/03 00:33:20;;;;;;;5.97;4.40;;;18.60;99.90;;;;;;5016692;28;20186;-64
2022/08/03 00:35:46;;;;;;;6.95;4.57;;;18.50;99.90;;;;;;5016530;28;20262;-64
2022/08/03 00:38:12;;;;;;;5.78;4.30;;;18.50;99.90;;;;;;5016597;28;20226;-64
2022/08/03 00:40:39;;;;;;;5.38;4.57;;;18.50;99.90;;;;;;5016449;28;20176;-64
2022/08/03 00:43:06;;;;;;;7.30;4.57;;;18.50;99.90;;;;;;5016663;28;20195;-64
2022/08/03 00:45:38;;;;;;;5.95;4.20;;;18.50;99.90;;;;;;5016453;28;20565;-64
2022/08/03 00:48:05;;;;;;;8.23;5.05;;;18.40;99.90;;;;;;5016637;28;20573;-64
2022/08/03 00:50:35;;;;;;;6.47;4.07;;;18.30;99.90;;;;;;4998619;28;20230;-64
2022/08/03 00:53:03;;;;;;;8.77;4.22;;;18.30;99.90;;;;;;4997770;28;20183;-64
2022/08/03 00:55:29;;;;;;;6.10;4.10;;;18.30;99.90;;;;;;4998222;28;20262;-64
2022/08/03 00:57:56;;;;;;;7.85;4.47;;;18.20;99.90;;;;;;5016269;28;20199;-64
2022/08/03 01:00:24;;;;;;;7.50;4.53;;;18.20;99.90;;;;;;5016170;28;20172;-64
2022/08/03 01:02:51;;;;;;;8.25;5.13;;;18.10;99.90;;;;;;4998252;28;20204;-64
2022/08/03 01:05:18;;;;;;;6.95;4.85;;;18.10;99.90;;;;;;5015997;28;20203;-64
2022/08/03 01:07:59;;;;;;;6.18;4.78;;;18.20;99.90;;;;;;5016040;28;20545;-64
2022/08/03 01:10:56;;;;;;;6.55;4.70;;;18.10;99.90;;;;;;5015761;28;20618;-64
2022/08/03 01:13:40;;;;;;;5.28;4.20;;;18.10;99.90;;;;;;5016256;28;20164;-64
2022/08/03 01:16:16;;;;;;;5.93;4.80;;;18.10;99.90;;;;;;5030970;28;20199;-64
2022/08/03 01:18:57;;;;;;;6.25;4.75;;;18.10;99.90;;;;;;5015693;28;20160;-64
2022/08/03 01:21:57;;;;;;;8.55;4.97;;;18.10;99.90;;;;;;5016020;28;20218;-64
2022/08/03 01:24:36;;;;;;;8.43;5.53;;;18.10;99.90;;;;;;4948816;28;20206;-63
2022/08/03 01:27:16;;;;;;;7.38;5.20;;;18.10;99.90;;;;;;5015437;28;20209;-64
2022/08/03 01:29:54;;;;;;;7.47;5.53;;;18.10;99.90;;;;;;4998065;28;20255;-64
2022/08/03 01:32:53;;;;;;;8.10;5.45;;;18.10;99.90;;;;;;4998129;28;20238;-64
2022/08/03 01:35:35;;;;;;;9.23;5.68;;;18.00;99.90;;;;;;5031121;28;20262;-64
2022/08/03 01:38:06;;;;;;;7.65;5.57;;;18.10;99.90;;;;;;4998543;28;20609;-63
2022/08/03 01:40:35;;;;;;;6.63;5.10;;;18.00;99.90;;;;;;5015903;28;20180;-64
2022/08/03 01:43:03;;;;;;;6.50;4.85;;;18.00;99.90;;;;;;4997814;28;20218;-63
2022/08/03 01:45:30;;;;;;;7.65;4.72;;;17.90;99.90;;;;;;4997703;28;20196;-63
2022/08/03 01:47:57;;;;;;;8.15;4.72;;;17.80;99.90;;;;;;5030701;28;20187;-64
2022/08/03 01:50:28;;;;;;;13.55;5.15;;;17.70;99.90;;;;;;4997641;28;20645;-64
2022/08/03 01:52:55;;;;;;;8.15;4.88;;;17.70;99.90;;;;;;5030660;28;20176;-64
2022/08/03 01:55:23;;;;;;;7.15;5.00;;;17.70;99.90;;;;;;5015017;28;20215;-64
2022/08/03 01:57:51;;;;;;;10.88;4.78;;;17.60;99.90;;;;;;5015065;28;20247;-64
2022/08/03 02:00:18;;;;;;;7.97;4.70;;;17.60;99.90;;;;;;5015263;28;20178;-64
2022/08/03 02:02:48;;;;;;;8.18;5.28;;;17.60;99.90;;;;;;5015522;28;20195;-64
2022/08/03 02:05:15;;;;;;;10.05;5.18;;;17.50;99.90;;;;;;5015192;28;20200;-65
2022/08/03 02:07:42;;;;;;;6.00;5.00;;;17.50;99.90;;;;;;5015463;28;20196;-64
2022/08/03 02:10:11;;;;;;;7.03;5.20;;;17.40;99.90;;;;;;5030184;28;20525;-64
2022/08/03 02:12:38;;;;;;;7.03;5.10;;;17.40;99.90;;;;;;5014595;28;20202;-64
2022/08/03 02:15:05;;;;;;;7.18;5.20;;;17.50;99.90;;;;;;5030125;28;20187;-64
2022/08/03 02:17:33;;;;;;;9.38;5.35;;;17.50;99.90;;;;;;5014630;28;20180;-64
2022/08/03 02:20:01;;;;;;;10.02;5.63;;;17.50;99.90;;;;;;5014690;28;20187;-64
2022/08/03 02:22:28;;;;;;;8.52;5.65;;;17.50;99.90;;;;;;5014626;28;20195;-64
2022/08/03 02:24:54;;;;;;;12.07;5.75;;;17.40;99.90;;;;;;5014959;28;20167;-64
2022/08/03 02:27:25;;;;;;;8.38;5.70;;;17.40;99.90;;;;;;5014432;28;20178;-64
2022/08/03 02:30:07;;;;;;;8.30;5.40;;;17.40;99.90;;;;;;4996834;28;20230;-64
2022/08/03 02:32:39;;;;;;;6.43;5.32;;;17.40;99.90;;;;;;4996786;28;20625;-64
2022/08/03 02:35:09;;;;;;;9.35;5.80;;;17.40;99.90;;;;;;5014604;28;20581;-64
2022/08/03 02:37:42;;;;;;;8.73;5.32;;;17.40;99.90;;;;;;5014541;28;20157;-64
2022/08/03 02:40:10;;;;;;;9.57;5.28;;;17.40;99.90;;;;;;4996916;28;20178;-64
2022/08/03 02:42:38;;;;;;;15.50;6.13;;;17.40;99.90;;;;;;5014057;28;20211;-64
2022/08/03 02:45:09;;;;;;;9.60;6.32;;;17.40;99.90;;;;;;5014271;28;20175;-64
2022/08/03 02:47:38;;;;;;;7.50;5.93;;;17.40;99.90;;;;;;5014422;28;20618;-64
2022/08/03 02:50:05;;;;;;;9.48;5.55;;;17.40;99.90;;;;;;5014584;28;20184;-64
2022/08/03 02:52:35;;;;;;;9.00;5.97;;;17.40;99.90;;;;;;4996578;28;20194;-64
2022/08/03 02:55:03;;;;;;;10.65;5.38;;;17.30;99.90;;;;;;4996470;28;20242;-65
2022/08/03 02:57:30;;;;;;;7.90;5.28;;;17.30;99.90;;;;;;5014067;28;20681;-64
2022/08/03 02:59:58;;;;;;;8.70;5.57;;;17.20;99.90;;;;;;5014395;28;20180;-64
2022/08/03 03:02:26;;;;;;;7.47;5.07;;;17.30;99.90;;;;;;5029149;28;20214;-65
2022/08/03 03:04:54;;;;;;;7.97;5.47;;;17.30;99.90;;;;;;5013791;28;20179;-64
2022/08/03 03:07:21;;;;;;;8.07;5.55;;;17.20;99.90;;;;;;4996297;28;20253;-64
2022/08/03 03:09:47;;;;;;;7.13;5.05;;;17.20;99.90;;;;;;5014610;28;20168;-64
2022/08/03 03:12:14;;;;;;;9.90;6.03;;;17.20;99.90;;;;;;5013981;28;20656;-64
2022/08/03 03:14:40;;;;;;;8.68;6.10;;;17.20;99.90;;;;;;5029323;28;20685;-64
2022/08/03 03:17:08;;;;;;;8.85;6.28;;;17.20;99.90;;;;;;5013696;28;20262;-64
2022/08/03 03:19:35;;;;;;;11.15;7.30;;;17.20;99.90;;;;;;5029174;28;20183;-64
2022/08/03 03:22:03;;;;;;;9.95;6.47;;;17.20;99.90;;;;;;5014426;28;20259;-64
2022/08/03 03:24:29;;;;;;;8.95;6.43;;;17.20;99.90;;;;;;4996565;28;20182;-64
2022/08/03 03:26:56;;;;;;;7.38;5.80;;;17.20;99.90;;;;;;5013840;28;20188;-64
2022/08/03 03:29:23;;;;;;;8.85;6.75;;;17.20;99.90;;;;;;5013746;28;20700;-64
2022/08/03 03:31:49;;;;;;;10.23;6.70;;;17.10;99.90;;;;;;5013568;28;20246;-64
2022/08/03 03:34:16;;;;;;;14.13;7.60;;;17.10;99.90;;;;;;5013642;28;20215;-64
2022/08/03 03:36:42;;;;;;;9.40;6.75;;;17.00;99.90;;;;;;5013650;28;20290;-64
2022/08/03 03:39:07;;;;;;;9.88;6.70;;;17.00;99.90;;;;;;5013597;28;20218;-65
2022/08/03 03:41:34;;;;;;;12.10;6.80;;;17.00;99.90;;;;;;4995624;28;20191;-64
2022/08/03 03:44:00;;;;;;;8.35;5.95;;;16.90;99.90;;;;;;5013739;28;20222;-64
2022/08/03 03:46:25;;;;;;;9.38;6.47;;;16.90;99.90;;;;;;5013661;28;20664;-64
2022/08/03 03:48:51;;;;;;;12.27;6.60;;;16.90;99.90;;;;;;5013488;28;20179;-65
2022/08/03 03:51:17;;;;;;;11.20;6.68;;;16.90;99.90;;;;;;5013497;28;20695;-64
2022/08/03 03:54:02;;;;;;;10.13;6.70;;;16.90;99.90;;;;;;4995996;28;20184;-64
2022/08/03 03:56:28;;;;;;;10.80;7.22;;;16.90;99.90;;;;;;5013172;28;20211;-64
2022/08/03 03:58:55;;;;;;;11.45;7.00;;;16.90;99.90;;;;;;5013393;28;20179;-64
2022/08/03 04:01:20;;;;;;;8.52;6.45;;;16.80;99.90;;;;;;5013615;28;20179;-64
2022/08/03 04:03:46;;;;;;;9.57;6.32;;;16.80;99.90;;;;;;5013169;28;20687;-65
2022/08/03 04:11:51;;;;;;;11.15;6.25;;;16.80;99.90;;;;;;5013368;28;20286;-64
2022/08/03 04:14:19;;;;;;;9.43;6.68;;;16.80;99.90;;;;;;5013558;28;20156;-64
2022/08/03 04:16:57;;;;;;;10.25;6.88;;;16.80;99.90;;;;;;5013132;28;20195;-64
2022/08/03 04:19:29;;;;;;;12.88;6.88;;;16.80;99.90;;;;;;5013735;28;20747;-64
2022/08/03 04:21:59;;;;;;;11.23;7.45;;;16.80;99.90;;;;;;4995462;28;20560;-64
2022/08/03 04:24:47;;;;;;;10.95;8.05;;;16.90;99.90;;;;;;4995342;28;20208;-64
2022/08/03 04:27:22;;;;;;;9.68;7.25;;;16.90;99.90;;;;;;5012954;28;20245;-64
2022/08/03 04:29:50;;;;;;;11.23;7.72;;;16.80;99.90;;;;;;5017056;28;20639;-66
2022/08/03 04:32:16;;;;;;;9.20;7.80;;;16.80;99.90;;;;;;5016675;28;20172;-66
2022/08/03 04:34:43;;;;;;;10.38;8.13;;;16.80;99.90;;;;;;4998801;28;20310;-66
2022/08/03 04:37:13;;;;;;;11.85;7.05;;;16.80;99.90;;;;;;5016681;28;20199;-66
2022/08/03 04:39:41;;;;;;;12.02;7.63;;;16.70;99.90;;;;;;5018117;28;20156;-67
2022/08/03 04:42:10;;;;;;;10.77;7.68;;;16.70;99.90;;;;;;5031276;28;20180;-66
2022/08/03 04:44:39;;;;;;;10.23;7.07;;;16.70;99.90;;;;;;5016582;28;20179;-66
2022/08/03 04:47:06;;;;;;;10.35;7.22;;;16.80;99.90;;;;;;4998654;28;20196;-66
2022/08/03 04:49:33;;;;;;;9.40;6.38;;;16.80;99.90;;;;;;5016904;28;20180;-66
2022/08/03 04:52:00;;;;;;;8.30;6.40;;;16.80;99.90;;;;;;5016608;28;20175;-66
2022/08/03 04:54:26;;;;;;;8.02;5.95;;;16.80;99.90;;;;;;5016354;28;20210;-67
2022/08/03 04:56:51;;;;;;;7.68;6.03;;;16.80;99.90;;;;;;5015790;28;20239;-66
2022/08/03 04:59:17;;;;;;;7.43;6.00;;;16.80;99.90;;;;;;5016353;28;20609;-66
2022/08/03 05:01:43;;;;;;;7.95;6.00;;;16.90;99.90;;;;;;4998542;28;20233;-66
2022/08/03 05:04:09;;;;;;;8.75;6.10;;;16.90;99.90;;;;;;5015952;28;20207;-65
2022/08/03 05:06:34;;;;;;;9.32;6.75;;;17.00;99.90;;;;;;4998391;28;20568;-67
2022/08/03 05:09:00;;;;;;;10.15;6.13;;;17.10;99.90;;;;;;4998745;28;20175;-67
2022/08/03 05:11:26;;;;;;;8.45;5.35;;;17.20;99.90;;;;;;5000780;28;20180;-67
2022/08/03 05:13:52;;;;;;;8.52;6.68;;;17.20;99.90;;;;;;4998479;28;20180;-66
2022/08/03 05:16:18;;;;;;;10.23;6.40;;;17.30;99.90;;;;;;5015969;28;20568;-67
2022/08/03 05:18:44;;;;;;;9.40;6.55;;;17.30;99.90;;;;;;5016017;28;20655;-66
2022/08/03 05:21:13;;;;;;;9.23;6.70;;;17.40;99.90;;;;;;5015825;28;20645;-66
2022/08/03 05:23:40;;;;;;;9.32;6.53;;;17.50;99.90;;;;;;4997973;28;20262;-66
2022/08/03 05:26:06;;;;;;;11.15;7.10;;;17.60;99.90;;;;;;4997976;28;20203;-66
2022/08/03 05:28:31;;;;;;;10.35;7.22;;;17.70;99.90;;;;;;4997989;28;20175;-66
2022/08/03 05:30:57;;;;;;;9.18;6.85;;;17.80;99.90;;;;;;5015939;28;20167;-66
2022/08/03 05:33:23;;;;;;;11.93;6.40;;;17.80;99.90;;;;;;5015395;28;20171;-66
2022/08/03 05:35:49;;;;;;;12.25;6.10;;;17.90;99.90;;;;;;5015361;28;20381;-66
2022/08/03 05:38:14;;;;;;;8.13;5.25;;;18.00;99.90;;;;;;5015198;28;20644;-66
2022/08/03 05:40:40;;;;;;;9.32;6.35;;;18.00;99.90;;;;;;5015402;28;20180;-66
2022/08/03 05:43:06;;;;;;;8.65;5.80;;;18.10;99.90;;;;;;5015009;28;20199;-66
2022/08/03 05:45:32;;;;;;;8.73;5.85;;;18.10;99.90;;;;;;5015139;28;20188;-65
2022/08/03 05:47:57;;;;;;;8.35;5.75;;;18.20;99.90;;;;;;5015130;28;20708;-66
2022/08/03 05:50:23;;;;;;;8.48;5.43;;;18.30;99.90;;;;;;5015069;28;20172;-66
2022/08/03 05:52:49;;;;;;;8.63;6.38;;;18.40;99.90;;;;;;5015314;28;20175;-66
2022/08/03 05:55:15;;;;;;;7.55;5.47;;;18.50;99.90;;;;;;5015308;28;20195;-66
2022/08/03 05:57:42;;;;;;;10.05;6.35;;;18.50;99.90;;;;;;4997133;28;20175;-66
2022/08/03 06:00:10;;;;;;;11.32;6.45;;;18.60;99.90;;;;;;5014971;28;20210;-65
2022/08/03 06:02:36;;;;;;;8.23;6.00;;;18.60;99.90;;;;;;4997169;28;20259;-65
2022/08/03 06:05:02;;;;;;;8.65;5.88;;;18.70;99.90;;;;;;5014936;28;20225;-66
2022/08/03 06:07:28;;;;;;;6.90;5.13;;;18.80;99.90;;;;;;5014797;28;20183;-65
2022/08/03 06:09:54;;;;;;;5.82;4.50;;;18.90;99.90;;;;;;5014722;28;20176;-65
2022/08/03 06:12:20;;;;;;;6.72;4.95;;;19.00;99.90;;;;;;5014529;28;20221;-65
2022/08/03 06:14:46;;;;;;;7.35;5.30;;;19.10;99.90;;;;;;5014710;28;20164;-65
2022/08/03 06:17:12;;;;;;;9.30;5.55;;;19.20;99.90;;;;;;4996937;28;20266;-65
2022/08/03 06:19:38;;;;;;;8.25;5.20;;;19.30;99.90;;;;;;4996924;28;20195;-65
2022/08/03 06:22:04;;;;;;;5.60;4.47;;;19.40;99.90;;;;;;5014855;28;20644;-65
2022/08/03 06:24:29;;;;;;;6.82;4.75;;;19.40;99.90;;;;;;5014426;28;20573;-65
2022/08/03 06:26:55;;;;;;;9.48;5.28;;;19.50;99.90;;;;;;5014284;28;20199;-65
2022/08/03 06:29:21;;;;;;;7.65;5.20;;;19.60;99.90;;;;;;4996907;28;20238;-65
2022/08/03 06:31:47;;;;;;;6.28;4.38;;;19.70;99.90;;;;;;5014446;28;20204;-65
2022/08/03 06:34:13;;;;;;;6.50;4.93;;;19.80;99.90;;;;;;4996839;28;20191;-65
2022/08/03 06:36:38;;;;;;;6.60;4.30;;;19.90;99.90;;;;;;4996636;28;20706;-65
2022/08/03 06:39:05;;;;;;;8.00;4.85;;;20.00;99.90;;;;;;4996815;28;20176;-65
2022/08/03 06:41:31;;;;;;;8.32;4.32;;;20.10;99.90;;;;;;4996470;28;20188;-65
2022/08/03 06:43:56;;;;;;;7.60;4.72;;;20.10;99.90;;;;;;5014516;28;20286;-65
2022/08/03 06:46:22;;;;;;;5.53;4.45;;;20.20;99.90;;;;;;4996547;28;20639;-65
2022/08/03 06:48:48;;;;;;;8.27;4.57;;;20.30;99.90;;;;;;5014505;28;20171;-65
2022/08/03 06:51:14;;;;;;;5.60;4.85;;;20.40;99.90;;;;;;4995722;28;20172;-65
2022/08/03 06:53:40;;;;;;;5.95;4.05;;;20.50;99.90;;;;;;4996501;28;20271;-65
2022/08/03 06:56:06;;;;;;;7.90;4.70;;;20.60;99.90;;;;;;4996187;28;20219;-65
2022/08/03 06:58:32;;;;;;;7.85;4.57;;;20.70;99.90;;;;;;4996183;28;20183;-65
2022/08/03 07:00:58;;;;;;;5.35;4.05;;;20.80;99.90;;;;;;5013977;28;20234;-65
2022/08/03 07:03:24;;;;;;;7.18;4.13;;;20.90;99.90;;;;;;5013885;28;20196;-65
2022/08/03 07:05:50;;;;;;;7.28;3.90;;;21.00;99.90;;;;;;5014726;28;20204;-64
2022/08/03 07:08:16;;;;;;;7.57;4.53;;;21.10;99.90;;;;;;5014289;28;20641;-66
2022/08/03 07:10:43;;;;;;;4.28;3.85;;;21.20;99.90;;;;;;4997500;28;20179;-65
2022/08/03 07:13:09;;;;;;;3.67;3.38;;;21.30;99.90;;;;;;5015078;28;20609;-66
2022/08/03 07:15:35;;;;;;;5.13;3.75;;;21.40;99.90;;;;;;5014906;28;20202;-65
2022/08/03 07:18:01;;;;;;;8.57;4.30;;;21.50;99.90;;;;;;5014894;28;20254;-66
2022/08/03 07:20:27;;;;;;;9.95;4.50;;;21.60;99.90;;;;;;5014173;28;20206;-64
2022/08/03 07:22:52;;;;;;;8.63;4.55;;;21.80;99.90;;;;;;5014045;28;20207;-66
2022/08/03 07:25:19;;;;;;;10.23;4.68;;;21.90;99.90;;;;;;5013880;28;20691;-66
2022/08/03 07:27:48;;;;;;;4.55;3.65;;;22.00;99.90;;;;;;4995936;28;20184;-67
2022/08/03 07:30:14;;;;;;;6.72;3.85;;;22.10;99.90;;;;;;4996245;28;20255;-67
2022/08/03 07:32:41;;;;;;;5.28;3.83;;;22.20;99.90;;;;;;4995953;28;20219;-67
2022/08/03 07:35:08;;;;;;;8.65;4.07;;;22.30;99.90;;;;;;4996054;28;20671;-67
2022/08/03 07:37:34;;;;;;;9.60;4.68;;;22.40;99.90;;;;;;5029105;28;20709;-67
2022/08/03 07:40:02;;;;;;;5.85;3.28;;;22.50;99.90;;;;;;4996116;28;20211;-66
2022/08/03 07:42:28;;;;;;;6.45;3.80;;;22.60;99.90;;;;;;4995697;28;20234;-67
2022/08/03 07:44:54;;;;;;;5.65;3.58;;;22.80;99.90;;;;;;4995966;28;20625;-67
2022/08/03 07:47:27;;;;;;;4.85;3.50;;;23.10;99.90;;;;;;5013569;28;20180;-67
2022/08/03 07:49:53;;;;;;;4.22;3.40;;;23.20;99.90;;;;;;4995891;28;20182;-66
2022/08/03 07:55:05;;;;;;;7.05;3.30;;;23.60;99.90;;;;;;5013611;28;20199;-67
2022/08/03 07:57:31;;;;;;;6.82;3.30;;;23.80;99.90;;;;;;4995634;28;20188;-66
2022/08/03 07:59:57;;;;;;;5.25;3.05;;;24.20;99.90;;;;;;5013394;28;20152;-66
2022/08/03 08:02:23;;;;;;;7.35;3.38;;;24.40;99.90;;;;;;5015076;28;20270;-67
2022/08/03 08:04:49;;;;;;;5.60;3.03;;;24.50;99.90;;;;;;5017299;28;20186;-67
2022/08/03 08:07:15;;;;;;;3.28;2.58;;;24.60;99.90;;;;;;5017154;28;20246;-67
2022/08/03 08:09:40;;;;;;;7.30;3.03;;;24.60;99.90;;;;;;5017799;28;20525;-66
2022/08/03 08:12:07;;;;;;;4.78;2.97;;;24.80;99.90;;;;;;5017300;28;20247;-67
2022/08/03 08:14:34;;;;;;;5.80;2.88;;;25.00;99.90;;;;;;5017530;28;20160;-67
2022/08/03 08:17:00;;;;;;;6.82;2.63;;;25.00;99.90;;;;;;5017311;28;20683;-67
2022/08/03 08:19:26;;;;;;;4.20;2.90;;;25.10;99.90;;;;;;4999310;28;20250;-67
2022/08/03 08:21:52;;;;;;;6.72;3.08;;;25.30;99.90;;;;;;5017240;28;20262;-67
2022/08/03 08:24:18;;;;;;;6.70;2.95;;;25.40;99.90;;;;;;5017190;28;20191;-67
2022/08/03 08:26:43;;;;;;;4.85;2.60;;;25.50;99.90;;;;;;5017035;28;20192;-67
2022/08/03 08:29:09;;;;;;;4.72;2.75;;;25.60;99.90;;;;;;5017182;28;20539;-67
2022/08/03 08:31:35;;;;;;;4.10;2.70;;;25.70;99.90;;;;;;5017758;28;20160;-66
2022/08/03 08:34:04;;;;;;;8.82;2.80;;;25.90;99.90;;;;;;5017213;28;20194;-67
2022/08/03 08:36:34;;;;;;;2.97;2.53;;;25.90;99.90;;;;;;5017152;28;20226;-67
2022/08/03 08:39:00;;;;;;;8.32;2.90;;;26.00;99.90;;;;;;5016804;28;20175;-67
2022/08/03 08:41:26;;;;;;;3.67;2.70;;;26.00;99.90;;;;;;5017050;28;20164;-66
2022/08/03 08:43:53;;;;;;;5.93;3.20;;;26.20;99.90;;;;;;5016169;28;20669;-66
2022/08/03 08:46:20;;;;;;;3.45;2.20;;;26.30;99.90;;;;;;5016640;28;20661;-67
2022/08/03 08:48:47;;;;;;;7.82;3.10;;;26.60;99.90;;;;;;5017149;28;20179;-67
2022/08/03 08:51:15;;;;;;;4.80;2.55;;;26.70;99.90;;;;;;5017405;28;20210;-66
2022/08/03 08:53:44;;;;;;;4.22;2.42;;;26.90;99.90;;;;;;5018196;28;20621;-67
2022/08/03 08:56:16;;;;;;;5.00;2.65;;;26.90;99.90;;;;;;5016377;28;20687;-67
2022/08/03 08:58:56;;;;;;;4.68;2.60;;;26.90;99.90;;;;;;5015976;28;20164;-67
2022/08/03 09:01:21;;;;;;;5.43;2.28;;;27.00;99.90;;;;;;5016507;28;20168;-67
2022/08/03 09:03:48;;;;;;;4.07;2.63;;;27.10;99.90;;;;;;4998452;28;20207;-67
2022/08/03 09:06:14;;;;;;;4.22;2.50;;;27.20;99.90;;;;;;5015862;28;20187;-67
2022/08/03 09:08:40;;;;;;;5.70;2.40;;;27.30;99.90;;;;;;5015946;28;20656;-67
2022/08/03 09:11:08;;;;;;;7.60;2.53;;;27.40;99.90;;;;;;5016298;28;20172;-67
2022/08/03 09:13:34;;;;;;;5.30;3.33;;;27.50;99.90;;;;;;5015009;28;20184;-67
2022/08/03 09:16:18;;;;;;;6.03;2.50;;;27.60;99.90;;;;;;5015758;28;20583;-67
2022/08/03 09:18:53;;;;;;;6.78;3.20;;;27.80;99.90;;;;;;5015917;28;20160;-67
2022/08/03 09:21:25;;;;;;;4.10;2.85;;;27.90;99.90;;;;;;5015886;28;20175;-67
2022/08/03 09:23:56;;;;;;;7.25;2.90;;;28.10;99.90;;;;;;4997958;28;20214;-67
2022/08/03 09:26:28;;;;;;;5.10;2.80;;;28.20;99.90;;;;;;5016270;28;20196;-67
2022/08/03 09:28:59;;;;;;;4.63;2.67;;;28.30;99.90;;;;;;5015331;28;20251;-67
2022/08/03 09:31:31;;;;;;;6.43;3.33;;;28.40;99.90;;;;;;5015591;28;20168;-67
2022/08/03 09:34:00;;;;;;;5.47;2.70;;;28.50;99.90;;;;;;5015498;28;20175;-67
2022/08/03 09:36:42;;;;;;;4.28;2.85;;;28.50;99.90;;;;;;5015526;28;20245;-67
2022/08/03 09:39:11;;;;;;;6.63;2.45;;;28.40;99.90;;;;;;5015526;28;20200;-67
2022/08/03 09:41:38;;;;;;;7.32;2.80;;;28.50;99.90;;;;;;5015786;28;20538;-67
2022/08/03 09:44:04;;;;;;;3.95;2.72;;;28.50;99.90;;;;;;5015104;28;20195;-67
2022/08/03 09:46:33;;;;;;;4.35;2.75;;;28.60;99.90;;;;;;5015332;28;20203;-67
2022/08/03 09:49:11;;;;;;;5.25;2.92;;;28.70;99.90;;;;;;5015305;28;20176;-67
2022/08/03 09:51:39;;;;;;;6.28;3.00;;;28.80;99.90;;;;;;5015504;28;20185;-67
2022/08/03 09:54:05;;;;;;;5.20;3.05;;;29.00;99.90;;;;;;5015693;28;20180;-67
2022/08/03 09:56:46;;;;;;;5.13;2.80;;;29.10;99.90;;;;;;4997247;28;20219;-67
2022/08/03 09:59:22;;;;;;;5.10;2.80;;;29.20;99.90;;;;;;5014857;28;20213;-67
2022/08/03 10:01:48;;;;;;;6.50;2.22;;;29.20;99.90;;;;;;5015314;28;20523;-67
2022/08/03 10:04:15;;;;;;;3.95;2.47;;;29.20;99.90;;;;;;5015072;28;20203;-67
2022/08/03 10:06:45;;;;;;;3.78;2.80;;;29.30;99.90;;;;;;5015412;28;20195;-67
2022/08/03 10:09:15;;;;;;;4.57;2.40;;;29.30;99.90;;;;;;5014801;28;20564;-67
2022/08/03 10:11:43;;;;;;;5.05;2.63;;;29.40;99.90;;;;;;5015673;28;20254;-67
2022/08/03 10:14:21;;;;;;;3.55;2.45;;;29.40;99.90;;;;;;5014619;28;20175;-67
2022/08/03 10:16:47;;;;;;;5.32;2.92;;;29.30;99.90;;;;;;4997610;28;20622;-67
2022/08/03 10:19:14;;;;;;;8.75;2.63;;;29.50;99.90;;;;;;4997433;28;20220;-67
2022/08/03 10:21:46;;;;;;;3.47;2.58;;;29.50;99.90;;;;;;5015190;28;20684;-68
2022/08/03 10:24:15;;;;;;;6.57;2.80;;;29.50;99.90;;;;;;5015047;28;20199;-67
2022/08/03 10:26:45;;;;;;;3.67;2.58;;;29.60;99.90;;;;;;5015577;28;20191;-66
2022/08/03 10:29:23;;;;;;;5.65;2.70;;;29.60;99.90;;;;;;4996442;28;20198;-66
2022/08/03 10:31:52;;;;;;;5.05;2.60;;;29.50;99.90;;;;;;4997760;28;20175;-65
2022/08/03 10:34:22;;;;;;;4.13;2.58;;;29.50;99.90;;;;;;5014694;28;20183;-67
2022/08/03 10:36:52;;;;;;;4.70;2.30;;;29.50;99.90;;;;;;5014855;28;20245;-66
2022/08/03 10:39:20;;;;;;;6.60;2.97;;;29.50;99.90;;;;;;5014948;28;20503;-67
2022/08/03 10:41:48;;;;;;;9.35;3.28;;;29.60;99.90;;;;;;4996888;28;20229;-67
2022/08/03 10:44:17;;;;;;;6.40;3.00;;;29.60;99.90;;;;;;5014173;28;20188;-67
2022/08/03 10:46:45;;;;;;;3.53;2.58;;;29.60;99.90;;;;;;5014566;28;20192;-67
2022/08/03 10:49:13;;;;;;;4.32;2.85;;;29.70;99.90;;;;;;5014279;28;20160;-67
2022/08/03 10:51:40;;;;;;;6.00;3.53;;;29.70;99.90;;;;;;4996468;28;20251;-67
2022/08/03 10:54:06;;;;;;;6.22;2.85;;;29.70;99.90;;;;;;4996453;28;20555;-67
2022/08/03 10:59:45;;;;;;;3.15;2.42;;;29.70;99.90;;;;;;5013860;28;20543;-67
2022/08/03 11:02:12;;;;;;;4.53;2.42;;;29.80;99.90;;;;;;5013898;28;20275;-67
2022/08/03 11:04:39;;;;;;;6.55;2.55;;;29.80;99.90;;;;;;5014948;28;20551;-66
2022/08/03 11:07:22;;;;;;;7.38;3.00;;;29.90;99.90;;;;;;5014412;28;20196;-67
2022/08/03 11:09:53;;;;;;;4.03;2.58;;;30.10;99.90;;;;;;5014403;28;20220;-65
2022/08/03 11:12:26;;;;;;;5.30;2.45;;;30.00;99.90;;;;;;5013759;28;20152;-66
2022/08/03 11:14:54;;;;;;;3.50;2.42;;;30.00;99.90;;;;;;5014362;28;20168;-66
2022/08/03 11:17:21;;;;;;;3.25;2.20;;;30.20;99.90;;;;;;4995931;28;20218;-66
2022/08/03 11:19:49;;;;;;;3.95;2.45;;;30.40;99.90;;;;;;5013697;28;20175;-66
2022/08/03 11:22:17;;;;;;;6.78;2.97;;;30.40;99.90;;;;;;5013695;28;20211;-66
2022/08/03 11:24:42;;;;;;;5.40;3.08;;;30.60;99.90;;;;;;5013948;28;20196;-65
2022/08/03 11:27:14;;;;;;;7.13;2.83;;;30.70;99.90;;;;;;5013534;28;20680;-66
2022/08/03 11:30:27;;;;;;;3.03;2.60;;;30.90;99.90;;;;;;4996117;28;20168;-65
2022/08/03 11:32:57;;;;;;;4.88;2.50;;;30.70;99.90;;;;;;5013917;28;20214;-66
2022/08/03 11:35:22;;;;;;;5.07;3.03;;;30.50;99.90;;;;;;4995754;28;20212;-66
2022/08/03 11:37:56;;;;;;;5.95;2.95;;;30.70;99.90;;;;;;5013129;28;20232;-66
2022/08/03 11:40:51;;;;;;;5.38;2.53;;;31.00;99.90;;;;;;5013321;28;20233;-66
2022/08/03 11:43:29;;;;;;;3.83;2.17;;;31.20;99.90;;;;;;5013330;28;20192;-66
2022/08/03 11:46:20;;;;;;;3.22;2.28;;;31.30;99.90;;;;;;5013317;28;20192;-66
2022/08/03 11:48:48;;;;;;;7.07;2.35;;;31.10;99.90;;;;;;5013392;28;20617;-66
2022/08/03 11:51:26;;;;;;;4.97;2.50;;;31.00;99.90;;;;;;5013321;28;20160;-66
2022/08/03 11:53:52;;;;;;;5.15;2.70;;;31.00;99.90;;;;;;5013307;28;20172;-66
2022/08/03 11:56:19;;;;;;;4.18;2.35;;;30.80;99.90;;;;;;5013122;28;20215;-66
2022/08/03 11:58:52;;;;;;;5.07;2.38;;;30.50;99.90;;;;;;5013063;28;20171;-66
2022/08/03 12:01:20;;;;;;;4.18;2.13;;;30.60;99.90;;;;;;4995697;28;20266;-66
2022/08/03 12:03:46;;;;;;;5.80;2.20;;;30.90;99.90;;;;;;5013043;28;20230;-66
2022/08/03 12:06:14;;;;;;;4.72;2.60;;;31.10;99.90;;;;;;5013299;28;20202;-66
2022/08/03 12:08:42;;;;;;;4.90;2.28;;;31.10;99.90;;;;;;5013505;28;20166;-66
2022/08/03 12:11:10;;;;;;;3.33;2.20;;;31.30;99.90;;;;;;5013372;28;20180;-66
2022/08/03 12:13:46;;;;;;;6.43;2.28;;;31.60;99.90;;;;;;5012874;28;20172;-66
2022/08/03 12:16:30;;;;;;;10.60;2.65;;;31.60;99.90;;;;;;5013166;28;20195;-66
2022/08/03 12:19:00;;;;;;;6.55;2.55;;;31.70;99.90;;;;;;5013379;28;20164;-66
2022/08/03 12:21:26;;;;;;;3.58;2.33;;;31.80;99.90;;;;;;5013430;28;20199;-66
2022/08/03 12:23:58;;;;;;;5.28;2.13;;;32.00;99.90;;;;;;5013274;28;20198;-66
2022/08/03 12:26:24;;;;;;;4.15;2.58;;;31.70;99.90;;;;;;5013101;28;20223;-66
2022/08/03 12:28:50;;;;;;;4.78;2.50;;;31.30;99.90;;;;;;5012947;28;20168;-66
2022/08/03 12:31:16;;;;;;;4.28;2.25;;;31.10;99.90;;;;;;5013726;28;20211;-66
2022/08/03 12:34:03;;;;;;;4.78;2.60;;;31.10;99.90;;;;;;5013495;28;20225;-66
2022/08/03 12:36:31;;;;;;;4.47;2.40;;;31.10;99.90;;;;;;5013046;28;20196;-66
2022/08/03 12:39:07;;;;;;;3.15;1.83;;;31.10;99.90;;;;;;5013312;28;20270;-66
2022/08/03 12:41:39;;;;;;;5.50;1.80;;;31.60;99.90;;;;;;5013399;28;20167;-66
2022/08/03 12:44:07;;;;;;;9.82;2.60;;;31.90;99.90;;;;;;5012714;28;20227;-66
2022/08/03 12:46:42;;;;;;;6.13;2.40;;;32.00;99.90;;;;;;5013181;28;20247;-66
2022/08/03 12:49:17;;;;;;;6.22;2.03;;;32.30;99.90;;;;;;5014200;28;20166;-66
2022/08/03 12:51:43;;;;;;;5.90;2.10;;;32.50;99.90;;;;;;5016930;28;20233;-66
2022/08/03 12:54:19;;;;;;;5.85;2.25;;;32.50;99.90;;;;;;4998838;28;20705;-66
2022/08/03 12:57:03;;;;;;;5.80;2.40;;;32.80;99.90;;;;;;4998477;28;20215;-66
2022/08/03 12:59:31;;;;;;;5.40;2.13;;;33.10;99.90;;;;;;5016239;28;20164;-66
2022/08/03 13:01:58;;;;;;;5.32;1.90;;;32.60;99.90;;;;;;5031404;28;20184;-66
2022/08/03 13:04:27;;;;;;;7.07;2.17;;;32.70;99.90;;;;;;5016079;28;20207;-66
2022/08/03 13:07:12;;;;;;;4.22;2.30;;;33.10;99.90;;;;;;5016093;28;20188;-66